Time;durP1;ratioP1;P1;durP2;ratioP2;P2;SDS_P1;SDS_P2;PMS_P1;PMS_P2;Temp;Humidity;BMP_temperature;BMP_pressure;BME280_temperature;BME280_humidity;BME280_pressure;Samples;Min_cycle;Max_cycle;Signal;HPM_P1;HPM_P2
2023/03/14 00:00:51;;;;;;;;;;;;;;;12.12;62.80;100124.53;5014988;28;19921;-88
2023/03/14 00:03:46;;;;;;;;;;;;;;;12.07;63.18;100132.13;4975393;28;19914;-86
2023/03/14 00:06:38;;;;;;;;;;;;;;;12.28;62.31;100124.66;4978835;28;19914;-85
2023/03/14 00:09:43;;;;;;;;;;;;;;;12.47;61.83;100126.78;4970354;28;19914;-85
2023/03/14 00:12:35;;;;;;;;;;;;;;;12.69;61.22;100127.13;4967173;28;20293;-86
2023/03/14 00:15:27;;;;;;;;;;;;;;;12.79;60.55;100126.66;4975543;28;19918;-87
2023/03/14 00:18:19;;;;;;;;;;;;;;;12.89;60.20;100116.38;4967863;28;20397;-85
2023/03/14 00:21:14;;;;;;;;;;;;;;;12.77;60.49;100112.53;4968404;28;19914;-85
2023/03/14 00:24:06;;;;;;;;;;;;;;;12.95;59.87;100107.63;4991522;28;20288;-85
2023/03/14 00:26:58;;;;;;;;;;;;;;;12.99;59.66;100097.59;4981545;28;19914;-87
2023/03/14 00:29:50;;;;;;;;;;;;;;;13.01;59.41;100094.50;5001849;28;19914;-85
2023/03/14 00:32:39;;;;;;;;;;;;;;;13.03;59.41;100073.13;4985993;28;19914;-84
2023/03/14 00:35:32;;;;;;;;;;;;;;;13.00;59.47;100091.00;4978200;28;20381;-83
2023/03/14 00:38:28;;;;;;;;;;;;;;;12.96;59.66;100053.81;4964370;28;19914;-84
2023/03/14 00:41:22;;;;;;;;;;;;;;;12.93;59.58;100043.59;4991981;28;19914;-85
2023/03/14 00:44:13;;;;;;;;;;;;;;;12.78;60.14;100026.81;4980306;28;20325;-85
2023/03/14 00:47:05;;;;;;;;;;;;;;;12.90;59.52;100012.31;4983535;28;19914;-86
2023/03/14 00:49:58;;;;;;;;;;;;;;;12.81;59.66;100011.69;4981563;28;20000;-83
2023/03/14 00:52:47;;;;;;;;;;;;;;;12.83;59.46;100015.66;4977266;28;19914;-86
2023/03/14 00:55:43;;;;;;;;;;;;;;;12.87;59.59;100013.03;4965134;28;19922;-86
2023/03/14 00:58:35;;;;;;;;;;;;;;;12.87;59.47;100004.84;4964225;28;19914;-87
2023/03/14 01:01:25;;;;;;;;;;;;;;;12.94;59.34;100001.53;4983055;28;19914;-86
2023/03/14 01:04:17;;;;;;;;;;;;;;;13.00;59.22;99984.56;4979682;28;19914;-86
2023/03/14 01:07:07;;;;;;;;;;;;;;;13.01;59.07;99985.31;4984890;28;19922;-87
2023/03/14 01:09:59;;;;;;;;;;;;;;;12.86;59.47;99993.13;4961689;28;19919;-88
2023/03/14 01:12:51;;;;;;;;;;;;;;;12.97;59.16;99996.16;4963832;28;20297;-89
2023/03/14 01:15:43;;;;;;;;;;;;;;;12.85;59.49;99988.81;4974511;28;19918;-88
2023/03/14 01:18:35;;;;;;;;;;;;;;;12.74;59.97;99981.50;4981050;28;19914;-89
2023/03/14 01:21:27;;;;;;;;;;;;;;;12.75;60.02;99991.25;4974023;28;20390;-88
2023/03/14 01:24:17;;;;;;;;;;;;;;;12.46;60.85;99958.84;4985012;28;20309;-89
2023/03/14 01:27:09;;;;;;;;;;;;;;;12.31;61.42;99938.56;4985218;28;19914;-89
2023/03/14 01:29:58;;;;;;;;;;;;;;;11.98;62.56;99958.66;5002284;28;19905;-89
2023/03/14 01:32:50;;;;;;;;;;;;;;;12.03;62.42;99956.81;4980664;28;19922;-91
2023/03/14 01:39:23;;;;;;;;;;;;;;;12.01;62.40;99935.34;4992550;28;19922;-90
2023/03/14 02:03:08;;;;;;;;;;;;;;;11.72;61.92;99848.44;5558232;22;19906;-86
2023/03/14 02:05:59;;;;;;;;;;;;;;;11.71;61.81;99861.25;5008200;28;19914;-86
2023/03/14 02:08:48;;;;;;;;;;;;;;;11.77;61.65;99848.22;5010402;28;19910;-86
2023/03/14 02:11:40;;;;;;;;;;;;;;;11.72;61.82;99832.09;5014611;28;19902;-85
2023/03/14 02:14:47;;;;;;;;;;;;;;;11.79;61.78;99837.78;5011009;28;19901;-86
2023/03/14 02:18:02;;;;;;;;;;;;;;;11.86;61.46;99838.78;5029678;28;19897;-86
2023/03/14 02:21:22;;;;;;;;;;;;;;;11.91;61.28;99826.84;5036386;28;20108;-85
2023/03/14 02:28:20;;;;;;;;;;;;;;;12.00;60.72;99801.03;5011088;28;19897;-86
2023/03/14 02:31:13;;;;;;;;;;;;;;;12.00;60.58;99816.59;5022946;28;19897;-86
2023/03/14 02:34:03;;;;;;;;;;;;;;;12.09;60.54;99816.47;5022903;28;19902;-85
2023/03/14 02:36:50;;;;;;;;;;;;;;;11.97;60.77;99806.41;5017257;28;19901;-85
2023/03/14 02:39:45;;;;;;;;;;;;;;;12.05;60.26;99815.56;5022342;28;19905;-86
2023/03/14 02:42:33;;;;;;;;;;;;;;;12.13;60.05;99788.16;5005123;28;19905;-85
2023/03/14 02:48:54;;;;;;;;;;;;;;;12.16;59.56;99797.56;4990519;28;19912;-86
2023/03/14 02:54:57;;;;;;;;;;;;;;;12.27;58.78;99802.19;5413027;23;19914;-85
2023/03/14 02:57:50;;;;;;;;;;;;;;;12.29;58.62;99810.00;5007461;28;19906;-85
2023/03/14 03:00:40;;;;;;;;;;;;;;;12.29;58.31;99766.41;5003913;28;19902;-85
2023/03/14 03:03:31;;;;;;;;;;;;;;;12.31;58.09;99780.44;4984236;28;20197;-85
2023/03/14 03:06:22;;;;;;;;;;;;;;;12.30;57.80;99785.09;5002898;28;19898;-82
2023/03/14 03:09:15;;;;;;;;;;;;;;;12.28;58.13;99787.41;4983464;28;19910;-86
2023/03/14 03:12:05;;;;;;;;;;;;;;;12.24;58.17;99788.47;4983667;28;19902;-86
2023/03/14 03:14:55;;;;;;;;;;;;;;;12.20;57.87;99771.19;4984176;28;19903;-87
2023/03/14 03:17:42;;;;;;;;;;;;;;;12.26;58.19;99769.81;4994084;28;19899;-87
2023/03/14 03:20:53;;;;;;;;;;;;;;;12.20;58.01;99738.50;4988271;29;19898;-87
2023/03/14 03:23:39;;;;;;;;;;;;;;;12.25;58.15;99739.03;4979483;29;19898;-87
2023/03/14 03:26:31;;;;;;;;;;;;;;;12.24;58.00;99702.00;4985699;29;19906;-86
2023/03/14 03:29:22;;;;;;;;;;;;;;;12.06;58.51;99680.91;4985164;28;19898;-85
2023/03/14 03:32:10;;;;;;;;;;;;;;;11.93;58.63;99647.50;4980037;28;19911;-84
2023/03/14 03:34:56;;;;;;;;;;;;;;;11.92;58.78;99652.16;4984124;28;19930;-84
2023/03/14 03:37:41;;;;;;;;;;;;;;;12.03;58.35;99635.28;4986999;28;19907;-84
2023/03/14 03:40:28;;;;;;;;;;;;;;;11.96;58.50;99655.75;4986196;28;19918;-84
2023/03/14 03:43:18;;;;;;;;;;;;;;;12.02;58.31;99671.84;4985890;28;19914;-84
2023/03/14 03:46:10;;;;;;;;;;;;;;;12.00;58.28;99651.19;4984368;28;19914;-84
2023/03/14 03:49:05;;;;;;;;;;;;;;;12.14;57.95;99655.44;4986067;28;19906;-84
2023/03/14 03:51:52;;;;;;;;;;;;;;;12.10;58.00;99662.69;4984515;28;19906;-84
2023/03/14 03:54:43;;;;;;;;;;;;;;;12.18;57.83;99659.03;4990806;28;19907;-85
2023/03/14 03:57:30;;;;;;;;;;;;;;;12.22;57.78;99644.34;5001153;28;19905;-84
2023/03/14 04:00:22;;;;;;;;;;;;;;;12.21;57.89;99670.00;5004032;28;19905;-84
2023/03/14 04:03:11;;;;;;;;;;;;;;;12.19;57.81;99650.47;4983710;28;19906;-85
2023/03/14 04:06:05;;;;;;;;;;;;;;;12.25;58.01;99637.38;5171505;23;22611;-85
2023/03/14 04:09:11;;;;;;;;;;;;;;;12.24;57.88;99647.50;5003525;28;19906;-85
2023/03/14 04:12:10;;;;;;;;;;;;;;;12.21;58.20;99625.59;5010293;28;19906;-83
2023/03/14 04:15:14;;;;;;;;;;;;;;;12.22;58.48;99613.56;4984553;29;19898;-84
2023/03/14 04:18:04;;;;;;;;;;;;;;;12.15;58.84;99608.72;4993075;28;19902;-83
2023/03/14 04:20:55;;;;;;;;;;;;;;;12.18;59.02;99609.97;5007923;28;19902;-84
2023/03/14 04:23:53;;;;;;;;;;;;;;;12.29;58.97;99589.97;4979000;28;19914;-84
2023/03/14 04:55:59;;;;;;;;;;;;;;;12.61;58.53;99547.09;5416656;23;19925;-88
2023/03/14 04:58:56;;;;;;;;;;;;;;;12.69;58.11;99535.19;5015735;28;19922;-87
2023/03/14 05:01:52;;;;;;;;;;;;;;;12.64;58.61;99540.94;5014126;28;20385;-87
2023/03/14 05:11:09;;;;;;;;;;;;;;;12.53;59.14;99517.28;5067393;23;20186;-84
2023/03/14 05:21:30;;;;;;;;;;;;;;;12.57;59.21;99505.31;5491295;23;19920;-85
2023/03/14 05:24:56;;;;;;;;;;;;;;;12.51;59.37;99486.84;5011259;28;19901;-86
2023/03/14 05:28:28;;;;;;;;;;;;;;;12.41;60.06;99491.75;4999889;28;19898;-86
2023/03/14 05:31:29;;;;;;;;;;;;;;;12.38;60.11;99462.47;5006183;28;19897;-84
2023/03/14 05:34:40;;;;;;;;;;;;;;;12.35;60.71;99463.16;5004040;28;19902;-86
2023/03/14 05:37:40;;;;;;;;;;;;;;;12.35;60.93;99476.00;5002886;28;19898;-86
2023/03/14 05:40:46;;;;;;;;;;;;;;;12.37;60.97;99520.06;5004781;28;19898;-83
2023/03/14 05:44:22;;;;;;;;;;;;;;;12.50;60.77;99559.69;4986151;28;19902;-84
2023/03/14 05:47:55;;;;;;;;;;;;;;;12.66;60.54;99582.25;4976488;28;19923;-86
2023/03/14 05:51:17;;;;;;;;;;;;;;;12.81;60.98;99586.88;4947759;28;19918;-87
2023/03/14 05:54:27;;;;;;;;;;;;;;;12.83;61.80;99627.44;4991416;23;19926;-86
2023/03/14 06:00:37;;;;;;;;;;;;;;;12.52;65.45;99609.22;5920472;23;20705;-86
2023/03/14 06:15:45;;;;;;;;;;;;;;;11.92;72.32;99581.31;5694865;23;19906;-84
2023/03/14 06:18:52;;;;;;;;;;;;;;;11.92;72.70;99564.97;5002994;28;19902;-84
2023/03/14 06:21:46;;;;;;;;;;;;;;;11.78;73.33;99569.28;5013822;28;19897;-86
2023/03/14 06:24:41;;;;;;;;;;;;;;;11.47;75.00;99564.56;5002872;28;19902;-85
2023/03/14 06:27:28;;;;;;;;;;;;;;;11.57;75.07;99581.19;4998264;28;19910;-82
2023/03/14 06:30:20;;;;;;;;;;;;;;;11.45;74.58;99578.53;4995838;28;19925;-84
2023/03/14 06:33:15;;;;;;;;;;;;;;;11.46;75.59;99568.44;5000441;28;19906;-84
2023/03/14 06:36:15;;;;;;;;;;;;;;;11.42;75.83;99586.59;4998807;28;19941;-83
2023/03/14 06:39:07;;;;;;;;;;;;;;;11.51;75.56;99587.22;5239937;23;19906;-83
2023/03/14 06:42:00;;;;;;;;;;;;;;;11.48;75.49;99580.53;5139276;23;19910;-85
2023/03/14 06:44:52;;;;;;;;;;;;;;;11.50;75.77;99596.53;5000114;28;19902;-85
2023/03/14 06:47:39;;;;;;;;;;;;;;;11.47;76.43;99589.06;4981607;29;19913;-85
2023/03/14 06:50:26;;;;;;;;;;;;;;;11.44;77.17;99570.69;5012991;28;19897;-85
2023/03/14 06:56:14;;;;;;;;;;;;;;;11.47;76.74;99561.84;5099267;23;19912;-84
2023/03/14 06:59:05;;;;;;;;;;;;;;;11.49;76.94;99559.53;5011487;28;19930;-84
2023/03/14 07:01:52;;;;;;;;;;;;;;;11.41;77.19;99552.34;5277757;23;19910;-85
2023/03/14 07:07:55;;;;;;;;;;;;;;;11.20;79.08;99549.06;5007419;28;19906;-86
2023/03/14 07:10:42;;;;;;;;;;;;;;;11.39;77.91;99536.34;4989592;28;19902;-85
2023/03/14 07:13:36;;;;;;;;;;;;;;;11.62;77.45;99533.84;5003464;28;19897;-85
2023/03/14 07:16:45;;;;;;;;;;;;;;;11.72;76.32;99519.69;5007945;28;19902;-85
2023/03/14 07:26:44;;;;;;;;;;;;;;;12.03;74.72;99523.56;5270143;23;19922;-83
2023/03/14 07:29:36;;;;;;;;;;;;;;;12.11;74.88;99517.94;4996577;28;19917;-85
2023/03/14 07:32:30;;;;;;;;;;;;;;;12.14;74.05;99522.66;4994288;28;20393;-85
2023/03/14 07:35:29;;;;;;;;;;;;;;;12.11;73.83;99519.84;4985241;28;19922;-87
2023/03/14 07:38:19;;;;;;;;;;;;;;;12.05;73.63;99519.34;5220017;23;19926;-80
2023/03/14 07:41:44;;;;;;;;;;;;;;;12.30;74.26;99533.53;4999568;28;19906;-81
2023/03/14 07:45:25;;;;;;;;;;;;;;;13.49;69.83;99519.97;4940596;29;19923;-82
2023/03/14 07:48:16;;;;;;;;;;;;;;;13.53;68.29;99523.56;4948151;28;20345;-82
2023/03/14 07:51:08;;;;;;;;;;;;;;;13.34;68.75;99518.94;4948009;28;19914;-81
2023/03/14 07:54:00;;;;;;;;;;;;;;;13.47;68.36;99525.78;4946039;29;19914;-80
2023/03/14 07:56:52;;;;;;;;;;;;;;;13.26;68.92;99514.47;4942521;28;19918;-80
2023/03/14 07:59:44;;;;;;;;;;;;;;;13.03;70.82;99519.09;4932374;28;19915;-81
2023/03/14 08:02:36;;;;;;;;;;;;;;;13.20;69.91;99515.94;4947496;28;20383;-81
2023/03/14 08:05:28;;;;;;;;;;;;;;;13.10;71.04;99520.03;4936794;28;19915;-80
2023/03/14 08:08:20;;;;;;;;;;;;;;;13.86;67.82;99520.22;4940085;29;19914;-80
2023/03/14 08:11:12;;;;;;;;;;;;;;;13.92;67.36;99503.13;4940203;28;19915;-80
2023/03/14 08:14:02;;;;;;;;;;;;;;;13.68;68.42;99517.19;4933639;29;19915;-80
2023/03/14 08:16:54;;;;;;;;;;;;;;;13.47;68.50;99520.34;4939153;29;19922;-81
2023/03/14 08:19:46;;;;;;;;;;;;;;;13.53;68.50;99524.34;4946643;28;19914;-82
2023/03/14 08:22:38;;;;;;;;;;;;;;;13.64;68.58;99528.06;4939079;29;19915;-80
2023/03/14 08:25:30;;;;;;;;;;;;;;;13.72;68.72;99534.41;4941924;28;19919;-81
2023/03/14 08:28:22;;;;;;;;;;;;;;;13.50;69.80;99527.81;4942901;28;19915;-78
2023/03/14 08:31:14;;;;;;;;;;;;;;;13.42;70.68;99539.75;4938195;29;19914;-80
2023/03/14 08:34:06;;;;;;;;;;;;;;;13.43;70.36;99511.28;4940087;29;20391;-80
2023/03/14 08:36:56;;;;;;;;;;;;;;;13.53;70.37;99513.41;4938480;29;19919;-79
2023/03/14 08:39:48;;;;;;;;;;;;;;;13.39;70.83;99531.50;4941009;28;19918;-79
2023/03/14 08:42:37;;;;;;;;;;;;;;;13.28;71.51;99515.72;4945901;28;19918;-83
2023/03/14 08:45:29;;;;;;;;;;;;;;;13.11;72.34;99509.88;4950641;28;20390;-81
2023/03/14 08:48:22;;;;;;;;;;;;;;;12.96;73.35;99508.03;4938716;29;20382;-84
2023/03/14 08:51:18;;;;;;;;;;;;;;;12.91;73.07;99511.03;4943039;28;19915;-85
2023/03/14 08:54:07;;;;;;;;;;;;;;;12.87;73.46;99521.91;4935216;29;19923;-86
2023/03/14 08:57:01;;;;;;;;;;;;;;;12.79;73.99;99518.25;4946666;28;19918;-85
2023/03/14 09:03:17;;;;;;;;;;;;;;;12.71;74.71;99516.50;5022151;23;19922;-87
2023/03/14 09:09:13;;;;;;;;;;;;;;;12.69;74.52;99518.81;5226810;23;19910;-92
2023/03/14 09:12:05;;;;;;;;;;;;;;;12.75;74.44;99541.91;4986454;28;19922;-88
2023/03/14 09:14:57;;;;;;;;;;;;;;;12.63;75.04;99535.81;4944899;28;19918;-88
2023/03/14 09:17:47;;;;;;;;;;;;;;;12.67;75.11;99553.84;4969940;28;19914;-88
2023/03/14 09:20:41;;;;;;;;;;;;;;;12.60;74.98;99553.69;4963074;28;19915;-88
2023/03/14 09:23:33;;;;;;;;;;;;;;;12.71;75.17;99556.63;4976371;28;19915;-87
2023/03/14 09:26:23;;;;;;;;;;;;;;;12.86;74.98;99555.78;4982463;28;19914;-86
2023/03/14 09:29:15;;;;;;;;;;;;;;;12.93;75.01;99564.13;4971864;28;19914;-87
2023/03/14 09:32:04;;;;;;;;;;;;;;;12.89;74.81;99555.09;4959317;28;19914;-87
2023/03/14 09:34:54;;;;;;;;;;;;;;;12.77;75.00;99557.94;4959259;28;19926;-87
2023/03/14 09:37:57;;;;;;;;;;;;;;;12.50;76.64;99561.63;4968310;28;19914;-86
2023/03/14 09:40:54;;;;;;;;;;;;;;;12.69;76.61;99565.19;5038695;23;19929;-88
2023/03/14 09:55:59;;;;;;;;;;;;;;;12.30;79.21;99544.44;5050782;23;20300;-88
2023/03/14 10:08:25;;;;;;;;;;;;;;;12.17;79.43;99572.97;5083411;23;19930;-89
2023/03/14 10:11:17;;;;;;;;;;;;;;;12.12;80.67;99557.66;4977544;28;19918;-88
2023/03/14 10:20:27;;;;;;;;;;;;;;;11.86;82.17;99551.97;5247582;23;20290;-86
2023/03/14 10:29:17;;;;;;;;;;;;;;;10.90;89.94;99545.91;5862686;23;19906;-83
2023/03/14 10:32:08;;;;;;;;;;;;;;;10.81;93.02;99543.31;5446076;23;19921;-82
2023/03/14 10:35:18;;;;;;;;;;;;;;;11.08;94.05;99519.97;4986270;28;19918;-83
2023/03/14 10:38:14;;;;;;;;;;;;;;;11.30;92.49;99494.13;4994705;28;20200;-82
2023/03/14 10:41:16;;;;;;;;;;;;;;;11.65;90.32;99489.56;4966319;28;19914;-82
2023/03/14 10:44:11;;;;;;;;;;;;;;;11.14;90.99;99499.53;4977007;28;19915;-82
2023/03/14 10:47:04;;;;;;;;;;;;;;;11.21;92.36;99512.53;4983203;28;19918;-81
2023/03/14 10:49:53;;;;;;;;;;;;;;;11.42;91.65;99511.19;4982589;28;19913;-82
2023/03/14 10:52:49;;;;;;;;;;;;;;;11.64;91.08;99515.22;4972358;28;19923;-82
2023/03/14 10:55:44;;;;;;;;;;;;;;;11.70;90.38;99500.19;4977229;28;19918;-83
2023/03/14 10:58:43;;;;;;;;;;;;;;;11.66;89.04;99493.09;4991894;28;19921;-82
2023/03/14 11:01:46;;;;;;;;;;;;;;;11.74;89.10;99495.66;4995522;28;19913;-82
2023/03/14 11:04:57;;;;;;;;;;;;;;;11.87;88.94;99513.50;4987148;28;19913;-82
2023/03/14 11:07:46;;;;;;;;;;;;;;;11.71;87.84;99515.41;5001276;28;19914;-83
2023/03/14 11:10:40;;;;;;;;;;;;;;;11.85;87.93;99521.22;4998262;28;19913;-79
2023/03/14 11:13:36;;;;;;;;;;;;;;;11.78;87.81;99512.88;4981536;28;19914;-82
2023/03/14 11:16:45;;;;;;;;;;;;;;;11.66;88.92;99503.97;4971491;28;19918;-82
2023/03/14 11:19:50;;;;;;;;;;;;;;;11.39;89.65;99479.19;4972145;28;19918;-82
2023/03/14 11:22:44;;;;;;;;;;;;;;;11.20;93.43;99479.09;4968467;28;19914;-82
2023/03/14 11:25:43;;;;;;;;;;;;;;;11.23;92.66;99470.22;4967757;28;19914;-81
2023/03/14 11:28:46;;;;;;;;;;;;;;;11.49;92.14;99475.94;4974450;28;19914;-81
2023/03/14 11:31:40;;;;;;;;;;;;;;;11.67;90.63;99487.28;4978565;28;19929;-81
2023/03/14 11:34:45;;;;;;;;;;;;;;;11.78;90.27;99487.59;4967803;28;19935;-81
2023/03/14 11:37:38;;;;;;;;;;;;;;;11.90;90.61;99490.97;4968736;28;19915;-82
2023/03/14 11:40:27;;;;;;;;;;;;;;;11.50;95.65;99488.44;4980067;28;20390;-81
2023/03/14 11:43:20;;;;;;;;;;;;;;;11.15;99.64;99479.34;4978082;28;19913;-82
2023/03/14 11:46:13;;;;;;;;;;;;;;;10.98;100.00;99475.03;4979873;28;20301;-82
2023/03/14 11:49:09;;;;;;;;;;;;;;;10.87;100.00;99475.88;4973996;28;19914;-81
2023/03/14 11:52:01;;;;;;;;;;;;;;;11.11;100.00;99462.94;4973070;28;19918;-82
2023/03/14 11:55:04;;;;;;;;;;;;;;;11.26;100.00;99466.03;4985382;28;19914;-82
2023/03/14 11:57:58;;;;;;;;;;;;;;;11.11;97.13;99441.19;4969215;28;20305;-81
2023/03/14 12:00:52;;;;;;;;;;;;;;;11.05;95.45;99444.50;4969572;28;19918;-81
2023/03/14 12:03:49;;;;;;;;;;;;;;;11.29;95.57;99441.63;4977224;28;19914;-82
2023/03/14 12:06:41;;;;;;;;;;;;;;;11.31;93.34;99438.56;4976929;28;19914;-82
2023/03/14 12:09:34;;;;;;;;;;;;;;;11.33;91.44;99449.88;4969045;28;19914;-82
2023/03/14 12:12:25;;;;;;;;;;;;;;;11.27;90.80;99441.19;4960762;28;20285;-81
2023/03/14 12:15:24;;;;;;;;;;;;;;;11.42;92.24;99434.16;4966682;28;19918;-81
2023/03/14 12:18:43;;;;;;;;;;;;;;;11.65;92.16;99420.69;4966292;28;19918;-81
2023/03/14 12:22:01;;;;;;;;;;;;;;;11.61;90.78;99420.63;4981157;28;20385;-82
2023/03/14 12:24:57;;;;;;;;;;;;;;;12.17;88.47;99407.50;4971054;28;19913;-82
2023/03/14 12:28:02;;;;;;;;;;;;;;;12.11;87.45;99405.41;4974197;28;21382;-81
2023/03/14 12:30:50;;;;;;;;;;;;;;;12.17;88.51;99409.44;4977667;28;19914;-82
2023/03/14 12:33:42;;;;;;;;;;;;;;;12.04;86.79;99414.22;4982715;28;19913;-84
2023/03/14 12:36:57;;;;;;;;;;;;;;;12.46;84.77;99397.16;4979718;28;20061;-84
2023/03/14 12:39:45;;;;;;;;;;;;;;;12.75;83.22;99400.06;4965323;28;19944;-84
2023/03/14 12:42:53;;;;;;;;;;;;;;;12.77;82.48;99394.25;4964171;28;19914;-83
2023/03/14 12:46:02;;;;;;;;;;;;;;;12.35;83.11;99386.06;4975391;28;19918;-84
2023/03/14 12:49:07;;;;;;;;;;;;;;;12.11;85.89;99380.88;4978753;28;20390;-83
2023/03/14 12:52:01;;;;;;;;;;;;;;;12.63;84.22;99370.25;4967386;28;19914;-84
2023/03/14 12:54:53;;;;;;;;;;;;;;;13.63;81.21;99373.50;4967845;28;19914;-83
2023/03/14 12:57:48;;;;;;;;;;;;;;;14.32;77.64;99373.25;4965549;28;20289;-84
2023/03/14 13:00:40;;;;;;;;;;;;;;;14.55;75.79;99384.88;4963399;28;19923;-83
2023/03/14 13:04:01;;;;;;;;;;;;;;;14.37;75.52;99392.88;4978453;28;20307;-83
2023/03/14 13:06:58;;;;;;;;;;;;;;;14.03;73.34;99396.69;4973155;28;19914;-84
2023/03/14 13:10:07;;;;;;;;;;;;;;;13.79;75.82;99388.94;4984856;28;19914;-83
2023/03/14 13:12:59;;;;;;;;;;;;;;;13.71;74.43;99379.88;4971119;28;19914;-83
2023/03/14 13:15:56;;;;;;;;;;;;;;;13.54;75.32;99364.00;4967591;28;20301;-88
2023/03/14 13:18:48;;;;;;;;;;;;;;;13.57;75.44;99364.03;4982313;28;20381;-84
2023/03/14 13:21:40;;;;;;;;;;;;;;;13.15;76.04;99347.03;4981360;28;20297;-84
2023/03/14 13:24:28;;;;;;;;;;;;;;;12.98;78.45;99356.44;4987343;28;19910;-84
2023/03/14 13:27:20;;;;;;;;;;;;;;;13.36;77.72;99347.31;4987384;28;20389;-86
2023/03/14 13:30:18;;;;;;;;;;;;;;;13.45;76.49;99356.06;4981930;28;20152;-84
2023/03/14 13:33:13;;;;;;;;;;;;;;;16.23;69.66;99361.13;4988110;28;19914;-84
2023/03/14 13:36:04;;;;;;;;;;;;;;;21.86;49.38;99362.63;4988630;28;19914;-84
2023/03/14 13:39:03;;;;;;;;;;;;;;;23.01;43.86;99368.94;4986650;28;19918;-84
2023/03/14 13:41:54;;;;;;;;;;;;;;;22.84;45.24;99341.63;4984376;28;19914;-84
2023/03/14 13:44:46;;;;;;;;;;;;;;;20.53;49.62;99356.06;4988907;28;19914;-85
2023/03/14 13:47:40;;;;;;;;;;;;;;;22.18;46.98;99340.66;4985293;28;19913;-84
2023/03/14 13:50:32;;;;;;;;;;;;;;;19.54;51.93;99343.41;4988115;28;19914;-85
2023/03/14 13:53:22;;;;;;;;;;;;;;;18.80;54.78;99337.28;4987026;28;20374;-84
2023/03/14 13:56:14;;;;;;;;;;;;;;;18.56;55.85;99343.72;4988540;28;19914;-85
2023/03/14 13:59:06;;;;;;;;;;;;;;;18.99;54.94;99344.25;4989066;28;19918;-84
2023/03/14 14:01:53;;;;;;;;;;;;;;;20.65;50.58;99341.69;4985137;28;19913;-84
2023/03/14 14:04:45;;;;;;;;;;;;;;;22.14;45.67;99333.66;4988464;28;19918;-85
2023/03/14 14:07:37;;;;;;;;;;;;;;;20.05;50.07;99331.41;4988277;28;19918;-84
2023/03/14 14:10:31;;;;;;;;;;;;;;;20.08;50.22;99323.09;4982711;28;19914;-84
2023/03/14 14:13:23;;;;;;;;;;;;;;;20.42;49.43;99317.53;4979519;28;19932;-85
2023/03/14 14:16:10;;;;;;;;;;;;;;;18.53;54.57;99316.97;4983320;28;19918;-85
2023/03/14 14:19:00;;;;;;;;;;;;;;;19.01;53.58;99311.53;4988881;28;19918;-85
2023/03/14 14:21:52;;;;;;;;;;;;;;;18.32;55.61;99301.38;4993162;28;19914;-85
2023/03/14 14:24:44;;;;;;;;;;;;;;;18.49;55.68;99302.44;5001695;28;19914;-84
2023/03/14 14:27:43;;;;;;;;;;;;;;;17.56;57.55;99298.50;4973485;28;19994;-82
2023/03/14 14:30:35;;;;;;;;;;;;;;;17.38;59.03;99298.53;4978817;28;20386;-82
2023/03/14 14:33:27;;;;;;;;;;;;;;;17.76;58.93;99296.13;4976501;28;20362;-80
2023/03/14 14:36:19;;;;;;;;;;;;;;;17.33;59.39;99293.41;4983642;28;19914;-83
2023/03/14 14:39:19;;;;;;;;;;;;;;;16.83;60.04;99292.66;4988170;28;19918;-83
2023/03/14 14:42:15;;;;;;;;;;;;;;;16.57;61.85;99293.00;4996356;28;19913;-84
2023/03/14 14:45:06;;;;;;;;;;;;;;;16.33;61.51;99299.22;4971651;28;19913;-84
2023/03/14 14:47:59;;;;;;;;;;;;;;;16.22;62.46;99293.72;4970757;28;19914;-86
2023/03/14 14:50:56;;;;;;;;;;;;;;;16.14;63.68;99305.84;4991410;28;19914;-86
2023/03/14 14:53:44;;;;;;;;;;;;;;;16.78;60.61;99301.28;4990350;28;19914;-84
2023/03/14 14:56:37;;;;;;;;;;;;;;;16.69;60.81;99303.66;4989851;28;19914;-84
2023/03/14 14:59:30;;;;;;;;;;;;;;;17.06;60.24;99295.81;4984319;28;20301;-84
2023/03/14 15:02:37;;;;;;;;;;;;;;;16.70;60.64;99290.72;4999953;28;19913;-86
2023/03/14 15:05:29;;;;;;;;;;;;;;;16.25;62.09;99296.47;4980301;28;19919;-84
2023/03/14 15:08:21;;;;;;;;;;;;;;;16.29;63.26;99288.25;4974484;28;19914;-85
2023/03/14 15:11:17;;;;;;;;;;;;;;;16.15;62.79;99280.75;4988947;28;19913;-83
2023/03/14 15:14:03;;;;;;;;;;;;;;;16.16;63.13;99273.31;4984074;28;19913;-82
2023/03/14 15:16:55;;;;;;;;;;;;;;;16.07;63.74;99262.72;4978054;28;19918;-83
2023/03/14 15:19:47;;;;;;;;;;;;;;;15.76;64.75;99255.16;4979352;28;19918;-85
2023/03/14 15:22:39;;;;;;;;;;;;;;;15.67;65.21;99266.47;4966010;28;19914;-83
2023/03/14 15:25:31;;;;;;;;;;;;;;;15.80;64.52;99266.91;4985164;28;19914;-83
2023/03/14 15:28:25;;;;;;;;;;;;;;;15.51;65.39;99281.63;4986150;28;19914;-83
2023/03/14 15:31:18;;;;;;;;;;;;;;;15.95;64.20;99279.50;4964543;29;19914;-82
2023/03/14 15:34:10;;;;;;;;;;;;;;;15.60;64.66;99273.88;4968060;28;19914;-83
2023/03/14 15:37:02;;;;;;;;;;;;;;;15.85;63.48;99269.28;4987190;28;20388;-85
2023/03/14 15:39:54;;;;;;;;;;;;;;;15.99;63.63;99265.84;4994786;28;19918;-83
2023/03/14 15:42:49;;;;;;;;;;;;;;;16.11;63.43;99271.75;4988641;28;19914;-83
2023/03/14 15:45:41;;;;;;;;;;;;;;;15.91;64.01;99262.25;4986218;28;19914;-83
2023/03/14 15:48:30;;;;;;;;;;;;;;;16.03;64.05;99272.91;4983477;28;19914;-84
2023/03/14 15:51:22;;;;;;;;;;;;;;;15.89;64.41;99263.84;4983465;28;19914;-83
2023/03/14 15:54:14;;;;;;;;;;;;;;;15.80;64.13;99269.66;4989865;28;19914;-83
2023/03/14 15:57:06;;;;;;;;;;;;;;;15.62;64.94;99274.28;4989102;28;19914;-82
2023/03/14 15:59:55;;;;;;;;;;;;;;;15.58;65.24;99266.06;4973682;28;19918;-83
2023/03/14 16:02:47;;;;;;;;;;;;;;;15.32;65.91;99269.00;4963786;28;19914;-83
2023/03/14 16:05:39;;;;;;;;;;;;;;;15.27;66.54;99275.63;4987126;28;19914;-83
2023/03/14 16:08:31;;;;;;;;;;;;;;;15.31;66.99;99273.69;4987320;28;19918;-83
2023/03/14 16:11:21;;;;;;;;;;;;;;;15.21;67.00;99266.19;4995648;28;20396;-85
2023/03/14 16:14:13;;;;;;;;;;;;;;;15.19;66.71;99270.47;4998972;28;19914;-83
2023/03/14 16:17:02;;;;;;;;;;;;;;;14.87;67.53;99268.31;4982119;28;19919;-84
2023/03/14 16:19:54;;;;;;;;;;;;;;;14.84;67.87;99271.00;4990035;28;20381;-83
2023/03/14 16:22:46;;;;;;;;;;;;;;;14.79;68.18;99274.88;4994169;28;20401;-84
2023/03/14 16:25:39;;;;;;;;;;;;;;;14.97;67.49;99272.28;5005963;28;19914;-83
2023/03/14 16:28:31;;;;;;;;;;;;;;;15.00;68.01;99274.25;4985475;28;19915;-83
2023/03/14 16:31:28;;;;;;;;;;;;;;;14.95;68.49;99267.19;4993921;28;20297;-83
2023/03/14 16:34:17;;;;;;;;;;;;;;;14.97;68.34;99281.28;4995184;28;19914;-85
2023/03/14 16:37:09;;;;;;;;;;;;;;;14.95;68.50;99278.13;4977949;28;19913;-85
2023/03/14 16:40:01;;;;;;;;;;;;;;;14.86;68.68;99282.34;4982178;28;19919;-85
2023/03/14 16:42:54;;;;;;;;;;;;;;;14.77;68.91;99281.91;4975405;28;19913;-84
2023/03/14 16:45:48;;;;;;;;;;;;;;;14.82;68.78;99290.56;4986453;28;19914;-82
2023/03/14 16:48:40;;;;;;;;;;;;;;;14.66;69.29;99289.22;4987205;28;19914;-84
2023/03/14 16:51:39;;;;;;;;;;;;;;;14.74;69.21;99288.09;4972831;23;19923;-85
2023/03/14 16:54:32;;;;;;;;;;;;;;;14.67;69.46;99271.66;4939848;28;19923;-86
2023/03/14 16:57:26;;;;;;;;;;;;;;;14.67;69.24;99277.13;4935011;28;19919;-84
2023/03/14 17:00:18;;;;;;;;;;;;;;;14.51;69.69;99280.88;4932125;28;19915;-83
2023/03/14 17:03:10;;;;;;;;;;;;;;;14.40;70.43;99279.19;4936373;28;19919;-83
2023/03/14 17:06:02;;;;;;;;;;;;;;;14.22;71.27;99289.91;4938543;28;19941;-84
2023/03/14 17:08:54;;;;;;;;;;;;;;;14.23;71.48;99294.22;4937211;28;20389;-83
2023/03/14 17:11:45;;;;;;;;;;;;;;;14.04;72.30;99283.47;4932357;29;20313;-83
2023/03/14 17:14:33;;;;;;;;;;;;;;;14.14;72.50;99294.53;4933456;28;20378;-81
2023/03/14 17:17:25;;;;;;;;;;;;;;;14.17;73.20;99290.25;4946836;28;19919;-83
2023/03/14 17:20:17;;;;;;;;;;;;;;;13.99;73.91;99286.53;4947900;28;19915;-84
2023/03/14 17:23:14;;;;;;;;;;;;;;;14.09;73.40;99292.13;4942235;28;19915;-85
2023/03/14 17:26:06;;;;;;;;;;;;;;;14.01;73.90;99287.75;4942088;29;20597;-84
2023/03/14 17:28:56;;;;;;;;;;;;;;;13.83;74.90;99294.13;4943079;29;20378;-84
2023/03/14 17:31:48;;;;;;;;;;;;;;;13.80;75.14;99309.34;4937645;29;19914;-84
2023/03/14 17:34:41;;;;;;;;;;;;;;;13.85;75.60;99319.16;4925837;29;19918;-85